createdAt,value
2018-10-19T17:25:48.427Z,17.57
2018-10-19T17:28:16.986Z,17.57
2018-10-19T17:30:46.036Z,17.60
2018-10-19T17:33:15.424Z,17.63
2018-10-19T17:35:44.580Z,17.70
2018-10-19T17:38:13.108Z,17.74
2018-10-19T17:40:41.699Z,17.76
2018-10-19T17:43:10.274Z,17.77
2018-10-19T17:45:38.805Z,17.78
2018-10-19T17:48:07.304Z,17.83
2018-10-19T17:50:35.883Z,17.90
2018-10-19T17:53:05.431Z,17.90
2018-10-19T17:55:34.947Z,17.89
2018-10-19T17:58:03.505Z,17.83
2018-10-19T18:00:32.821Z,17.81
2018-10-19T18:03:01.553Z,17.78
2018-10-19T18:05:30.152Z,17.71
2018-10-19T18:07:59.589Z,17.67
2018-10-19T18:10:28.267Z,17.59
2018-10-19T18:12:56.758Z,17.50
2018-10-19T18:15:25.566Z,17.47
2018-10-19T18:17:56.654Z,17.38
2018-10-19T18:20:25.381Z,17.32
2018-10-19T18:22:54.070Z,17.28
2018-10-19T18:25:22.608Z,17.23
2018-10-19T18:27:51.229Z,17.19
2018-10-19T18:30:19.957Z,17.08
2018-10-19T18:32:50.539Z,17.08
2018-10-19T18:35:21.018Z,16.99
2018-10-19T18:37:51.540Z,16.98
2018-10-19T18:40:21.741Z,16.98
2018-10-19T18:42:53.302Z,16.95
2018-10-19T18:45:23.451Z,16.86
2018-10-19T18:47:55.534Z,16.84
2018-10-19T18:50:26.400Z,16.80
2018-10-19T18:52:56.747Z,16.77
2018-10-19T18:55:26.977Z,16.71
2018-10-19T18:57:57.587Z,16.61
2018-10-19T19:00:29.297Z,16.59
2018-10-19T19:03:01.085Z,16.51
2018-10-19T19:05:31.435Z,16.46
2018-10-19T19:08:02.465Z,16.44
2018-10-19T19:10:31.980Z,16.48
2018-10-19T19:13:06.812Z,16.48
2018-10-19T19:15:37.751Z,16.42
2018-10-19T19:18:08.421Z,16.38
2018-10-19T19:20:38.931Z,16.29
2018-10-19T19:23:11.460Z,16.22
2018-10-19T19:25:46.847Z,16.62
2018-10-19T19:28:17.577Z,16.40
2018-10-19T19:30:49.963Z,16.36
2018-10-19T19:33:26.314Z,16.31
2018-10-19T19:35:56.280Z,16.30
2018-10-19T19:38:27.515Z,16.23
2018-10-19T19:41:03.176Z,16.13
2018-10-19T19:43:34.088Z,16.03
2018-10-19T19:46:07.006Z,15.96
2018-10-19T19:48:42.145Z,15.91
2018-10-19T19:51:12.646Z,15.83
2018-10-19T19:53:43.524Z,15.79
2018-10-19T19:56:14.413Z,15.76
2018-10-19T19:58:46.479Z,15.72
2018-10-19T20:01:18.603Z,15.64
2018-10-19T20:03:49.926Z,15.49
2018-10-19T20:06:20.620Z,15.44
2018-10-19T20:08:51.801Z,15.45
2018-10-19T20:11:23.631Z,15.33
2018-10-19T20:13:54.919Z,15.40
2018-10-19T20:16:25.793Z,15.41
2018-10-19T20:18:56.119Z,15.37
2018-10-19T20:21:27.064Z,15.33
2018-10-19T20:23:58.192Z,15.29
2018-10-19T20:26:28.873Z,15.28
2018-10-19T20:28:59.630Z,15.26
2018-10-19T20:31:29.852Z,15.22
2018-10-19T20:33:58.927Z,15.18
2018-10-19T20:36:29.405Z,15.13
2018-10-19T20:39:00.364Z,15.12
2018-10-19T20:41:30.638Z,15.07
2018-10-19T20:44:00.999Z,15.00
2018-10-19T20:46:32.521Z,14.92
2018-10-19T20:49:03.344Z,14.88
2018-10-19T20:51:34.333Z,14.88
2018-10-19T20:54:05.616Z,14.85
2018-10-19T20:56:35.079Z,14.88
2018-10-19T20:59:05.232Z,14.87
2018-10-19T21:01:36.409Z,14.85
2018-10-19T21:04:08.521Z,14.75
2018-10-19T21:06:39.471Z,14.71
2018-10-19T21:09:11.089Z,14.58
2018-10-19T21:11:43.092Z,14.57
2018-10-19T21:14:13.593Z,14.59
2018-10-19T21:16:45.371Z,14.56
2018-10-19T21:19:15.711Z,14.49
2018-10-19T21:21:46.335Z,14.54
2018-10-19T21:24:17.262Z,14.48
2018-10-19T21:26:48.313Z,14.42
2018-10-19T21:29:17.728Z,14.39
2018-10-19T21:31:48.328Z,14.40
2018-10-19T21:34:19.155Z,14.36
2018-10-19T21:36:50.530Z,14.28
2018-10-19T21:39:20.894Z,14.22
2018-10-19T21:41:51.047Z,14.17
2018-10-19T21:44:22.113Z,14.08
2018-10-19T21:46:53.511Z,14.03
2018-10-19T21:49:24.277Z,14.04
2018-10-19T21:51:55.393Z,13.97
2018-10-19T21:54:27.194Z,13.94
2018-10-19T21:56:59.000Z,13.89
2018-10-19T21:59:29.383Z,13.84
2018-10-19T22:02:01.305Z,13.87
2018-10-19T22:04:31.500Z,13.86
2018-10-19T22:07:03.700Z,13.88
2018-10-19T22:09:34.058Z,13.79
2018-10-19T22:12:04.479Z,13.77
2018-10-19T22:14:34.649Z,13.75
2018-10-19T22:17:07.036Z,13.71
2018-10-19T22:19:39.345Z,13.67
2018-10-19T22:22:08.987Z,13.63
2018-10-19T22:24:38.164Z,13.64
2018-10-19T22:27:13.693Z,13.57
2018-10-19T22:29:45.149Z,13.55
2018-10-19T22:32:16.952Z,13.48
2018-10-19T22:34:47.160Z,13.41
2018-10-19T22:37:17.275Z,13.37
2018-10-19T22:39:47.958Z,13.33
2018-10-19T22:42:18.310Z,13.25
2018-10-19T22:44:50.604Z,13.21
2018-10-19T22:47:21.978Z,13.14
2018-10-19T22:49:57.284Z,13.12
2018-10-19T22:52:29.318Z,13.11
2018-10-19T22:55:00.155Z,13.07
2018-10-19T22:57:33.179Z,13.06
2018-10-19T23:00:05.013Z,13.01
2018-10-19T23:02:35.257Z,13.03
2018-10-19T23:05:07.021Z,12.98
2018-10-19T23:07:37.335Z,12.93
2018-10-19T23:10:09.194Z,12.88
2018-10-19T23:12:42.766Z,12.83
2018-10-19T23:15:14.174Z,12.84
2018-10-19T23:17:44.854Z,12.79
2018-10-19T23:20:16.514Z,12.79
2018-10-19T23:22:48.771Z,12.71
2018-10-19T23:25:20.538Z,12.72
2018-10-19T23:27:51.467Z,12.75
2018-10-19T23:30:22.463Z,12.68
2018-10-19T23:32:53.012Z,12.67
2018-10-19T23:35:23.376Z,12.61
2018-10-19T23:37:53.678Z,12.33
2018-10-19T23:40:24.607Z,12.47
2018-10-19T23:42:57.099Z,12.48
2018-10-19T23:45:28.754Z,12.45
2018-10-19T23:47:59.643Z,12.45
2018-10-19T23:50:30.371Z,12.40
2018-10-19T23:53:03.240Z,12.40
2018-10-19T23:55:32.043Z,12.26
2018-10-19T23:58:01.544Z,12.38
